Time;durP1;ratioP1;P1;durP2;ratioP2;P2;SDS_P1;SDS_P2;PMS_P1;PMS_P2;Temp;Humidity;BMP_temperature;BMP_pressure;BME280_temperature;BME280_humidity;BME280_pressure;Samples;Min_cycle;Max_cycle;Signal;HPM_P1;HPM_P2
2023/10/29 00:00:43;;;;;;;3.03;0.85;;;;;;;12.27;100.00;99079.81;5068814;28;20067;-68
2023/10/29 00:03:08;;;;;;;2.70;1.27;;;;;;;12.31;100.00;99079.28;5068480;28;20029;-67
2023/10/29 00:05:33;;;;;;;1.40;1.10;;;;;;;12.31;100.00;99079.28;5068337;28;20078;-67
2023/10/29 00:07:59;;;;;;;2.28;0.95;;;;;;;12.33;100.00;99077.19;5068379;28;20032;-67
2023/10/29 00:10:24;;;;;;;1.67;1.02;;;;;;;12.34;100.00;99068.94;5068342;28;20487;-67
2023/10/29 00:12:50;;;;;;;3.17;1.20;;;;;;;12.35;100.00;99067.06;5066834;28;20051;-67
2023/10/29 00:15:15;;;;;;;1.10;0.98;;;;;;;12.35;100.00;99065.19;5066973;28;20043;-67
2023/10/29 00:17:40;;;;;;;2.95;1.17;;;;;;;12.33;100.00;99051.25;5068235;28;20032;-67
2023/10/29 00:20:06;;;;;;;1.55;0.88;;;;;;;12.32;100.00;99051.53;5068352;28;20035;-67
2023/10/29 00:22:32;;;;;;;0.90;0.77;;;;;;;12.38;100.00;99055.84;5068498;28;20028;-67
2023/10/29 00:24:57;;;;;;;1.55;0.98;;;;;;;12.41;100.00;99052.66;5067953;28;20111;-68
2023/10/29 00:27:23;;;;;;;1.27;0.90;;;;;;;12.38;100.00;99037.13;5068055;28;20055;-68
2023/10/29 00:29:48;;;;;;;1.60;1.02;;;;;;;12.42;100.00;99038.25;5067958;28;20036;-67
2023/10/29 00:32:15;;;;;;;4.43;1.33;;;;;;;12.38;100.00;99005.06;5068062;28;20032;-67
2023/10/29 00:34:41;;;;;;;2.55;1.08;;;;;;;12.33;100.00;98987.09;5068080;28;20037;-67
2023/10/29 00:37:06;;;;;;;4.82;1.25;;;;;;;12.36;100.00;98991.94;5068130;28;20020;-67
2023/10/29 00:39:31;;;;;;;1.00;0.90;;;;;;;12.38;100.00;98991.69;5067995;28;20086;-67
2023/10/29 00:41:57;;;;;;;3.83;1.27;;;;;;;12.39;100.00;98990.63;5067935;28;20107;-67
2023/10/29 00:44:22;;;;;;;1.58;1.00;;;;;;;12.38;100.00;98989.00;5067928;28;20044;-68
2023/10/29 00:46:49;;;;;;;7.10;1.60;;;;;;;12.36;100.00;98989.25;5067832;28;20035;-67
2023/10/29 00:49:14;;;;;;;1.30;1.20;;;;;;;12.38;100.00;98989.81;5067894;28;20047;-68
2023/10/29 00:51:40;;;;;;;2.67;0.90;;;;;;;12.42;100.00;98985.59;5066594;28;20032;-68
2023/10/29 00:54:07;;;;;;;2.92;1.10;;;;;;;12.47;100.00;98998.16;5067839;28;20046;-67
2023/10/29 00:56:33;;;;;;;3.83;0.90;;;;;;;12.50;100.00;99016.41;5072075;28;20024;-67
2023/10/29 00:58:58;;;;;;;6.22;1.10;;;;;;;12.50;100.00;99001.16;5071828;28;20555;-68
2023/10/29 01:01:25;;;;;;;6.97;1.90;;;;;;;12.59;100.00;98996.13;5071805;28;20020;-67
2023/10/29 01:03:50;;;;;;;4.38;0.90;;;;;;;12.62;100.00;98989.47;5070409;28;20032;-68
2023/10/29 01:06:17;;;;;;;3.65;1.05;;;;;;;12.65;100.00;99000.47;5071784;28;20133;-67
2023/10/29 01:08:43;;;;;;;1.63;0.90;;;;;;;12.66;100.00;98985.25;5071905;28;20036;-67
2023/10/29 01:11:08;;;;;;;4.25;0.95;;;;;;;12.71;100.00;98993.31;5071798;28;20039;-67
2023/10/29 01:13:33;;;;;;;2.25;1.23;;;;;;;12.69;100.00;99001.56;5071572;28;20032;-68
2023/10/29 01:16:01;;;;;;;9.07;2.72;;;;;;;12.69;100.00;98990.88;5071828;28;20024;-67
2023/10/29 01:18:26;;;;;;;4.45;1.10;;;;;;;12.74;100.00;98981.28;5071792;28;20037;-68
2023/10/29 01:20:52;;;;;;;0.98;0.90;;;;;;;12.77;100.00;98978.09;5071713;28;20138;-67
2023/10/29 01:23:17;;;;;;;2.50;1.30;;;;;;;12.83;100.00;98969.03;5071717;28;20056;-67
2023/10/29 01:25:43;;;;;;;1.17;1.00;;;;;;;12.86;100.00;98957.81;5071220;28;20060;-68
2023/10/29 01:28:08;;;;;;;2.30;1.17;;;;;;;12.84;100.00;98950.06;5071511;28;20383;-67
2023/10/29 01:30:34;;;;;;;5.65;1.45;;;;;;;12.82;100.00;98948.69;5071194;28;20033;-67
2023/10/29 01:32:59;;;;;;;2.92;0.98;;;;;;;12.80;100.00;98956.97;5071261;28;20035;-67
2023/10/29 01:35:24;;;;;;;1.75;0.98;;;;;;;12.85;100.00;98953.53;5071404;28;20115;-68
2023/10/29 01:37:51;;;;;;;5.63;1.48;;;;;;;12.81;100.00;98963.13;5071494;28;20055;-67
2023/10/29 01:40:16;;;;;;;2.30;0.90;;;;;;;12.82;100.00;98970.09;5071508;28;20036;-67
2023/10/29 01:42:43;;;;;;;3.42;1.00;;;;;;;12.85;100.00;98973.06;5071360;28;20963;-67
2023/10/29 01:45:10;;;;;;;2.00;1.15;;;;;;;12.89;100.00;98952.75;5071396;28;20442;-68
2023/10/29 01:47:35;;;;;;;2.35;0.95;;;;;;;12.91;100.00;98939.91;5071070;28;20016;-67
2023/10/29 01:50:01;;;;;;;1.08;1.00;;;;;;;12.93;100.00;98939.66;5071450;28;20051;-68
2023/10/29 01:52:26;;;;;;;4.00;1.52;;;;;;;12.94;100.00;98934.06;5071199;28;20032;-68
2023/10/29 01:54:51;;;;;;;2.42;0.88;;;;;;;12.88;100.00;98923.56;5071249;28;20029;-68
2023/10/29 01:57:17;;;;;;;3.35;1.48;;;;;;;12.91;100.00;98936.44;5069731;28;20024;-68
2023/10/29 01:59:42;;;;;;;2.40;1.52;;;;;;;12.89;100.00;98935.88;5070946;28;20029;-68
2023/10/29 02:02:08;;;;;;;1.05;0.88;;;;;;;12.84;100.00;98919.81;5070817;28;20067;-68
2023/10/29 02:04:34;;;;;;;1.13;0.90;;;;;;;12.85;100.00;98930.25;5070771;28;20025;-68
2023/10/29 02:06:59;;;;;;;1.45;1.08;;;;;;;12.84;100.00;98931.31;5069651;28;20040;-68
2023/10/29 02:09:24;;;;;;;4.53;1.15;;;;;;;12.82;100.00;98930.78;5070654;28;20028;-68
2023/10/29 02:11:50;;;;;;;2.78;1.10;;;;;;;12.79;100.00;98927.81;5070498;28;20476;-67
2023/10/29 02:14:15;;;;;;;0.95;0.73;;;;;;;12.78;100.00;98936.88;5069204;28;20068;-67
2023/10/29 02:16:40;;;;;;;1.40;0.90;;;;;;;12.79;100.00;98933.16;5070523;28;20115;-67
2023/10/29 02:19:06;;;;;;;5.20;1.27;;;;;;;12.79;100.00;98936.66;5070747;28;20036;-67
2023/10/29 02:21:33;;;;;;;3.05;0.98;;;;;;;12.81;100.00;98934.53;5070519;28;20502;-67
2023/10/29 02:24:01;;;;;;;1.95;0.90;;;;;;;12.84;100.00;98930.53;5070560;28;20032;-67
2023/10/29 02:26:26;;;;;;;1.45;0.98;;;;;;;12.82;100.00;98922.75;5070290;28;20048;-67
2023/10/29 02:28:52;;;;;;;3.28;1.00;;;;;;;12.82;100.00;98922.75;5070326;28;20643;-68
2023/10/29 02:31:19;;;;;;;3.90;1.00;;;;;;;12.81;100.00;98939.03;5070257;28;20037;-67
2023/10/29 02:33:44;;;;;;;6.18;2.75;;;;;;;12.78;100.00;98932.34;5070336;28;20551;-67
2023/10/29 02:36:10;;;;;;;1.70;1.20;;;;;;;12.78;100.00;98935.00;5070248;28;20029;-68
2023/10/29 02:38:37;;;;;;;3.65;1.17;;;;;;;12.76;100.00;98923.78;5070260;28;20032;-68
2023/10/29 02:41:05;;;;;;;2.97;1.33;;;;;;;12.76;100.00;98933.66;5069625;28;20033;-67
2023/10/29 02:43:31;;;;;;;2.08;0.98;;;;;;;12.80;100.00;98945.47;5070121;28;20036;-67
2023/10/29 02:45:56;;;;;;;1.05;0.88;;;;;;;12.79;100.00;98949.22;5069745;28;20032;-67
2023/10/29 02:48:22;;;;;;;4.68;1.33;;;;;;;12.76;100.00;98944.34;5069779;28;20047;-67
2023/10/29 02:50:47;;;;;;;1.02;0.75;;;;;;;12.72;100.00;98930.72;5069919;28;20452;-67
2023/10/29 02:53:13;;;;;;;2.65;0.60;;;;;;;12.68;100.00;98925.06;5069814;28;20424;-67
2023/10/29 02:55:39;;;;;;;1.13;0.65;;;;;;;12.74;100.00;98936.59;5069798;28;20082;-67
2023/10/29 02:58:05;;;;;;;3.40;0.80;;;;;;;12.78;100.00;98928.88;5069922;28;20403;-67
2023/10/29 03:00:31;;;;;;;1.85;0.80;;;;;;;12.78;100.00;98924.31;5069783;28;20028;-67
2023/10/29 03:02:57;;;;;;;2.08;0.90;;;;;;;12.86;100.00;98931.06;5069771;28;20111;-68
2023/10/29 03:05:22;;;;;;;5.60;1.50;;;;;;;12.89;100.00;98926.00;5069545;28;20609;-67
2023/10/29 03:07:48;;;;;;;0.95;0.88;;;;;;;12.87;100.00;98919.31;5068062;28;20032;-67
2023/10/29 03:10:13;;;;;;;3.50;1.00;;;;;;;12.97;100.00;98930.06;5069318;28;20111;-68
2023/10/29 03:12:38;;;;;;;3.13;1.00;;;;;;;12.94;100.00;98927.88;5069501;28;20029;-67
2023/10/29 03:15:04;;;;;;;2.10;0.80;;;;;;;13.04;100.00;98919.09;5069383;28;20054;-67
2023/10/29 03:17:30;;;;;;;2.88;0.60;;;;;;;13.07;100.00;98930.13;5069194;28;20028;-67
2023/10/29 03:19:55;;;;;;;1.33;0.75;;;;;;;13.10;100.00;98929.59;5069455;28;20032;-67
2023/10/29 03:22:20;;;;;;;2.13;1.00;;;;;;;13.11;100.00;98925.84;5069270;28;20064;-67
2023/10/29 03:24:46;;;;;;;3.70;0.80;;;;;;;13.17;100.00;98934.69;5069112;28;20029;-67
2023/10/29 03:27:11;;;;;;;2.60;1.08;;;;;;;13.22;100.00;98934.72;5069064;28;20039;-67
2023/10/29 03:29:36;;;;;;;1.58;0.70;;;;;;;13.21;100.00;98933.13;5069143;28;20039;-67
2023/10/29 03:32:03;;;;;;;1.52;0.90;;;;;;;13.18;100.00;98925.63;5067760;28;20495;-68
2023/10/29 03:34:30;;;;;;;1.50;1.13;;;;;;;13.24;100.00;98937.94;5069075;28;20109;-67
2023/10/29 03:36:55;;;;;;;1.08;0.60;;;;;;;13.26;100.00;98940.38;5068946;28;20036;-67
2023/10/29 03:39:21;;;;;;;1.58;0.60;;;;;;;13.28;100.00;98940.91;5068803;28;20043;-67
2023/10/29 03:41:46;;;;;;;1.65;0.90;;;;;;;13.19;100.00;98929.88;5068840;28;20029;-67
2023/10/29 03:44:12;;;;;;;2.95;2.13;;;;;;;13.13;100.00;98942.44;5068806;28;20063;-67
2023/10/29 03:46:37;;;;;;;1.25;0.80;;;;;;;13.13;100.00;98939.78;5068529;28;20102;-67
2023/10/29 03:49:03;;;;;;;0.73;0.73;;;;;;;13.13;100.00;98936.28;5068805;28;20017;-67
2023/10/29 03:51:28;;;;;;;3.58;0.70;;;;;;;13.10;100.00;98929.59;5068677;28;20036;-67
2023/10/29 03:53:57;;;;;;;0.70;0.70;;;;;;;13.06;100.00;98936.50;5068734;28;20060;-67
2023/10/29 03:56:22;;;;;;;1.10;1.00;;;;;;;13.05;100.00;98939.47;5068697;28;20025;-67
2023/10/29 03:58:48;;;;;;;2.58;0.88;;;;;;;13.02;100.00;98931.94;5068606;28;20039;-67
2023/10/29 04:01:14;;;;;;;2.45;0.90;;;;;;;13.00;100.00;98924.19;5068512;28;20119;-67
2023/10/29 04:03:40;;;;;;;1.40;1.10;;;;;;;13.02;100.00;98929.25;5068587;28;20033;-68
2023/10/29 04:06:10;;;;;;;0.70;0.70;;;;;;;13.01;100.00;98933.00;5068244;28;20029;-68
2023/10/29 04:08:36;;;;;;;1.30;1.20;;;;;;;13.00;100.00;98934.09;5068236;28;20162;-67
2023/10/29 04:11:02;;;;;;;1.13;0.57;;;;;;;12.96;100.00;98928.44;5068591;28;20085;-67
2023/10/29 04:13:27;;;;;;;2.78;0.90;;;;;;;12.98;100.00;98928.19;5068344;28;20028;-67
2023/10/29 04:15:52;;;;;;;0.93;0.60;;;;;;;13.00;100.00;98920.72;5068438;28;20048;-67
2023/10/29 04:18:19;;;;;;;1.67;0.88;;;;;;;13.04;100.00;98935.16;5068436;28;20047;-67
2023/10/29 04:20:44;;;;;;;1.88;0.80;;;;;;;13.03;100.00;98937.03;5068438;28;20086;-67
2023/10/29 04:23:10;;;;;;;0.70;0.70;;;;;;;13.07;100.00;98937.31;5068412;28;20115;-67
2023/10/29 04:25:35;;;;;;;0.60;0.60;;;;;;;13.10;100.00;98936.81;5068284;28;20507;-67
2023/10/29 04:28:01;;;;;;;5.40;1.58;;;;;;;13.15;100.00;98944.84;5067978;28;20040;-67
2023/10/29 04:30:26;;;;;;;4.28;1.23;;;;;;;13.15;100.00;98948.34;5067988;28;20040;-67
2023/10/29 04:32:52;;;;;;;2.38;0.80;;;;;;;13.12;100.00;98951.53;5068149;28;20421;-67
2023/10/29 04:35:18;;;;;;;10.23;2.45;;;;;;;13.13;100.00;98965.75;5068204;28;20032;-67
2023/10/29 04:37:43;;;;;;;2.83;1.52;;;;;;;13.15;100.00;98959.06;5068088;28;20040;-67
2023/10/29 04:40:09;;;;;;;0.95;0.73;;;;;;;13.18;100.00;98964.94;5067991;28;20475;-67
2023/10/29 04:42:35;;;;;;;1.70;0.70;;;;;;;13.20;100.00;98970.84;5068103;28;20077;-67
2023/10/29 04:45:00;;;;;;;2.63;0.80;;;;;;;13.16;100.00;98955.31;5067960;28;20028;-67
2023/10/29 04:47:25;;;;;;;2.53;0.80;;;;;;;13.17;100.00;98948.06;5067762;28;20025;-67
2023/10/29 04:49:51;;;;;;;0.88;0.73;;;;;;;13.14;100.00;98948.59;5068149;28;20588;-67
2023/10/29 04:52:16;;;;;;;1.13;1.00;;;;;;;13.11;100.00;98951.81;5068009;28;20033;-67
2023/10/29 04:54:42;;;;;;;1.60;0.65;;;;;;;13.05;100.00;98955.53;5067952;28;20480;-68
2023/10/29 04:57:08;;;;;;;1.17;0.98;;;;;;;12.99;100.00;98957.34;5067907;28;20075;-67
2023/10/29 04:59:36;;;;;;;0.80;0.80;;;;;;;13.01;100.00;98947.19;5068044;28;20032;-68
2023/10/29 05:02:04;;;;;;;4.75;1.73;;;;;;;13.06;100.00;98959.81;5067903;28;20392;-67
2023/10/29 05:04:30;;;;;;;4.32;1.05;;;;;;;13.05;100.00;98955.53;5067835;28;20028;-67
2023/10/29 05:06:55;;;;;;;3.25;1.55;;;;;;;13.06;100.00;98947.22;5067696;28;20039;-67
2023/10/29 05:09:21;;;;;;;1.42;0.70;;;;;;;13.10;100.00;98955.56;5066498;28;20052;-67
2023/10/29 05:11:47;;;;;;;2.38;1.00;;;;;;;13.10;100.00;98953.69;5067849;28;20039;-67
2023/10/29 05:14:13;;;;;;;3.90;0.73;;;;;;;13.09;100.00;98970.78;5067669;28;20119;-67
2023/10/29 05:16:38;;;;;;;1.48;0.80;;;;;;;13.08;100.00;98969.19;5067578;28;20031;-67
2023/10/29 05:19:04;;;;;;;1.95;0.88;;;;;;;13.05;100.00;98959.00;5067668;28;20058;-68
2023/10/29 05:21:29;;;;;;;1.80;0.95;;;;;;;13.04;100.00;98964.59;5066267;28;20064;-67
2023/10/29 05:23:54;;;;;;;6.05;1.20;;;;;;;13.06;100.00;98973.97;5066152;28;20128;-67
2023/10/29 05:26:20;;;;;;;2.67;1.35;;;;;;;13.05;100.00;98988.44;5067436;28;20064;-69
2023/10/29 05:28:45;;;;;;;3.03;0.98;;;;;;;13.02;100.00;99002.34;5067669;28;20037;-69
2023/10/29 05:31:11;;;;;;;4.05;1.65;;;;;;;12.96;100.00;99011.38;5067881;28;20112;-67
2023/10/29 05:33:37;;;;;;;2.38;0.88;;;;;;;12.89;100.00;99008.94;5067609;28;20032;-67
2023/10/29 05:36:03;;;;;;;1.40;1.05;;;;;;;12.70;100.00;99000.50;5067714;28;20047;-67
2023/10/29 05:38:29;;;;;;;3.75;1.35;;;;;;;12.55;100.00;98992.38;5067660;28;20416;-67
2023/10/29 05:40:54;;;;;;;1.90;1.15;;;;;;;12.45;100.00;98998.44;5070222;28;20033;-67
2023/10/29 05:43:19;;;;;;;1.20;1.00;;;;;;;12.40;100.00;99001.06;5071351;28;20032;-67
2023/10/29 05:45:45;;;;;;;1.95;1.17;;;;;;;12.33;100.00;99016.50;5070971;28;20372;-67
2023/10/29 05:48:10;;;;;;;0.50;0.50;;;;;;;12.25;100.00;99020.44;5071270;28;20048;-67
2023/10/29 05:50:37;;;;;;;1.75;0.73;;;;;;;12.12;100.00;99026.19;5071031;28;20111;-67
2023/10/29 05:53:03;;;;;;;2.95;0.57;;;;;;;12.04;100.00;99013.28;5071221;28;20050;-67
2023/10/29 05:55:29;;;;;;;2.15;0.80;;;;;;;11.99;100.00;99002.53;5071156;28;20480;-67
2023/10/29 05:57:55;;;;;;;0.88;0.50;;;;;;;11.96;100.00;99009.19;5071139;28;20028;-67
2023/10/29 06:00:20;;;;;;;4.05;0.80;;;;;;;11.84;100.00;99016.50;5071000;28;20033;-67
2023/10/29 06:02:46;;;;;;;0.88;0.82;;;;;;;11.90;100.00;99044.94;5071059;28;20031;-67
2023/10/29 06:05:11;;;;;;;1.55;0.60;;;;;;;11.84;100.00;99046.72;5070787;28;20600;-67
2023/10/29 06:07:37;;;;;;;1.35;0.73;;;;;;;11.82;100.00;99046.13;5069492;28;20036;-67
2023/10/29 06:10:03;;;;;;;5.15;1.33;;;;;;;11.79;100.00;99062.66;5070783;28;20038;-67
2023/10/29 06:12:28;;;;;;;1.15;0.73;;;;;;;11.76;100.00;99067.69;5070722;28;20128;-67
2023/10/29 06:14:53;;;;;;;1.88;0.80;;;;;;;11.73;100.00;99073.53;5070674;28;20033;-67
2023/10/29 06:17:19;;;;;;;2.22;0.57;;;;;;;11.72;100.00;99071.91;5069366;28;20039;-67
2023/10/29 06:19:44;;;;;;;1.98;0.68;;;;;;;11.70;100.00;99082.84;5070591;28;20033;-67
2023/10/29 06:22:10;;;;;;;0.95;0.73;;;;;;;11.70;100.00;99082.03;5070354;28;20071;-67
2023/10/29 06:24:35;;;;;;;1.35;0.90;;;;;;;11.73;100.00;99089.56;5070655;28;20380;-67
2023/10/29 06:27:02;;;;;;;6.47;1.40;;;;;;;11.73;100.00;99098.38;5070233;28;20058;-67
2023/10/29 06:29:27;;;;;;;2.05;0.80;;;;;;;11.73;100.00;99108.25;5052523;28;20896;-67
2023/10/29 06:31:53;;;;;;;3.30;1.02;;;;;;;11.73;100.00;99105.56;5069742;28;20036;-67
2023/10/29 06:34:18;;;;;;;4.93;1.13;;;;;;;11.75;100.00;99104.28;5069518;28;20033;-67
2023/10/29 06:36:43;;;;;;;5.05;0.85;;;;;;;11.78;100.00;99113.66;5069303;28;20030;-67
2023/10/29 06:39:09;;;;;;;3.40;1.20;;;;;;;11.74;100.00;99108.00;5069240;28;20032;-67
2023/10/29 06:41:34;;;;;;;4.53;0.85;;;;;;;11.74;100.00;99105.34;5069501;28;20036;-67
2023/10/29 06:44:00;;;;;;;4.55;1.23;;;;;;;11.74;100.00;99108.00;5069581;28;20036;-67
2023/10/29 06:46:25;;;;;;;3.05;1.33;;;;;;;11.76;100.00;99121.94;5069705;28;20028;-67
2023/10/29 06:48:51;;;;;;;4.18;1.17;;;;;;;11.75;100.00;99122.97;5069623;28;20029;-67
2023/10/29 06:51:19;;;;;;;5.13;1.08;;;;;;;11.77;100.00;99131.53;5069428;28;20452;-67
2023/10/29 06:53:45;;;;;;;4.88;1.20;;;;;;;11.74;100.00;99136.59;5070047;28;20072;-67
2023/10/29 06:56:11;;;;;;;4.38;0.93;;;;;;;11.77;100.00;99142.22;5069887;28;20943;-67
2023/10/29 06:58:38;;;;;;;4.22;2.35;;;;;;;11.80;100.00;99149.75;5069527;28;20036;-67
2023/10/29 07:01:08;;;;;;;4.95;1.05;;;;;;;11.80;100.00;99147.06;5068389;28;20181;-67
2023/10/29 07:03:34;;;;;;;7.40;1.20;;;;;;;11.76;100.00;99143.31;5068963;28;20151;-67
2023/10/29 07:06:07;;;;;;;1.65;0.98;;;;;;;11.77;100.00;99147.56;5069605;28;20111;-67
2023/10/29 07:08:34;;;;;;;5.00;1.15;;;;;;;11.75;100.00;99154.22;5069656;28;20039;-67
2023/10/29 07:11:00;;;;;;;5.68;1.27;;;;;;;11.80;100.00;99157.75;5069216;28;20052;-67
2023/10/29 07:13:26;;;;;;;2.70;1.45;;;;;;;11.82;100.00;99163.66;5069434;28;20111;-67
2023/10/29 07:15:52;;;;;;;8.57;1.52;;;;;;;11.87;100.00;99179.00;5069479;28;20116;-67
2023/10/29 07:18:17;;;;;;;5.45;1.45;;;;;;;11.90;100.00;99180.38;5069463;28;20029;-67
2023/10/29 07:20:43;;;;;;;4.68;0.68;;;;;;;11.91;100.00;99193.47;5069329;28;20043;-68
2023/10/29 07:23:09;;;;;;;4.72;1.27;;;;;;;11.93;100.00;99180.69;5069213;28;20142;-68
2023/10/29 07:25:34;;;;;;;6.03;1.25;;;;;;;11.95;100.00;99183.91;5069239;28;20052;-68
2023/10/29 07:28:00;;;;;;;4.63;1.50;;;;;;;11.97;100.00;99189.00;5068937;28;20039;-68
2023/10/29 07:30:25;;;;;;;4.25;1.13;;;;;;;11.97;100.00;99175.63;5069227;28;20476;-68
2023/10/29 07:32:50;;;;;;;2.90;1.70;;;;;;;12.03;100.00;99201.38;5069065;28;20028;-68
2023/10/29 07:35:16;;;;;;;6.43;1.58;;;;;;;12.03;100.00;99193.38;5069067;28;20032;-70
2023/10/29 07:37:41;;;;;;;5.07;1.52;;;;;;;12.15;100.00;99212.75;5068890;28;20033;-69
2023/10/29 07:40:07;;;;;;;5.43;1.63;;;;;;;12.21;100.00;99222.47;5068977;28;20028;-68
2023/10/29 07:42:33;;;;;;;4.40;1.05;;;;;;;12.24;100.00;99221.16;5069034;28;20590;-68
2023/10/29 07:44:58;;;;;;;10.10;3.35;;;;;;;12.25;100.00;99220.91;5068704;28;20051;-67
2023/10/29 07:47:24;;;;;;;6.78;1.27;;;;;;;12.28;100.00;99220.41;5068513;28;20089;-69
2023/10/29 07:49:49;;;;;;;4.63;1.27;;;;;;;12.37;100.00;99233.38;5068828;28;20029;-68
2023/10/29 07:52:15;;;;;;;7.70;2.55;;;;;;;12.44;100.00;99231.28;5068634;28;20093;-68
2023/10/29 07:54:41;;;;;;;16.90;3.97;;;;;;;12.45;100.00;99228.38;5068410;28;20106;-68
2023/10/29 07:57:07;;;;;;;8.40;2.13;;;;;;;12.46;100.00;99234.53;5068698;28;20025;-68
2023/10/29 07:59:34;;;;;;;6.07;1.08;;;;;;;12.53;100.00;99245.88;5068592;28;20391;-68
2023/10/29 08:01:59;;;;;;;3.65;1.02;;;;;;;12.53;100.00;99239.72;5068409;28;20024;-67
2023/10/29 08:04:28;;;;;;;6.35;1.50;;;;;;;12.64;100.00;99244.13;5067599;28;20047;-68
2023/10/29 08:06:53;;;;;;;3.88;1.25;;;;;;;12.68;100.00;99240.69;5068169;28;20503;-68
2023/10/29 08:09:19;;;;;;;5.28;1.02;;;;;;;12.75;100.00;99231.66;5068310;28;20037;-67
2023/10/29 08:11:44;;;;;;;8.10;1.98;;;;;;;12.78;100.00;99231.97;5067143;28;20527;-68
2023/10/29 08:14:09;;;;;;;7.47;1.58;;;;;;;12.88;100.00;99233.94;5068065;28;20435;-67
2023/10/29 08:16:35;;;;;;;3.72;1.08;;;;;;;12.91;100.00;99255.66;5066767;28;20036;-68
2023/10/29 08:19:00;;;;;;;11.68;2.08;;;;;;;12.98;100.00;99266.16;5066262;28;20098;-67
2023/10/29 08:21:26;;;;;;;7.50;2.28;;;;;;;13.06;100.00;99268.38;5066191;28;20119;-68
2023/10/29 08:23:51;;;;;;;9.43;1.52;;;;;;;13.12;100.00;99272.72;5067697;28;20025;-69
2023/10/29 08:26:16;;;;;;;3.13;1.60;;;;;;;13.21;100.00;99270.41;5067578;28;20059;-69
2023/10/29 08:28:42;;;;;;;10.65;1.88;;;;;;;13.25;100.00;99271.53;5068113;28;20040;-69
2023/10/29 08:31:08;;;;;;;8.60;1.20;;;;;;;13.27;100.00;99290.84;5066566;28;20120;-69
2023/10/29 08:33:33;;;;;;;8.52;1.40;;;;;;;13.38;100.00;99292.56;5066541;28;20036;-68
2023/10/29 08:35:58;;;;;;;9.70;1.75;;;;;;;13.44;100.00;99282.72;5068064;28;20105;-69
2023/10/29 08:38:24;;;;;;;6.70;1.20;;;;;;;13.49;100.00;99284.63;5068106;28;20028;-68
2023/10/29 08:40:49;;;;;;;5.55;1.10;;;;;;;13.49;100.00;99284.63;5068051;28;20116;-68
2023/10/29 08:43:15;;;;;;;6.70;2.88;;;;;;;13.50;100.00;99281.69;5049990;28;20337;-69
2023/10/29 08:45:41;;;;;;;3.17;0.98;;;;;;;13.58;100.00;99291.16;5067816;28;20498;-68
2023/10/29 08:48:07;;;;;;;5.10;1.40;;;;;;;13.68;100.00;99285.06;5067773;28;20055;-68
2023/10/29 08:50:32;;;;;;;21.05;2.60;;;;;;;13.70;100.00;99296.31;5067826;28;20371;-68
2023/10/29 08:52:58;;;;;;;5.65;1.63;;;;;;;13.75;100.00;99304.41;5068028;28;20551;-68
2023/10/29 08:55:23;;;;;;;4.15;1.23;;;;;;;13.77;100.00;99318.34;5066710;28;20056;-68
2023/10/29 08:57:49;;;;;;;4.70;1.02;;;;;;;13.72;100.00;99302.25;5068233;28;20494;-69
2023/10/29 09:00:15;;;;;;;11.05;1.20;;;;;;;13.84;100.00;99315.47;5067745;28;20040;-67
2023/10/29 09:02:41;;;;;;;5.75;0.82;;;;;;;13.91;100.00;99326.78;5067225;28;20040;-68
2023/10/29 09:05:07;;;;;;;12.10;1.98;;;;;;;13.94;100.00;99324.41;5064523;28;20040;-69
2023/10/29 09:07:33;;;;;;;1.17;0.52;;;;;;;14.05;100.00;99332.53;5064842;28;20500;-68
2023/10/29 09:09:58;;;;;;;5.40;2.08;;;;;;;14.16;100.00;99334.22;5065460;28;20048;-69
2023/10/29 09:12:25;;;;;;;3.33;0.68;;;;;;;14.21;100.00;99339.59;5065653;28;20377;-66
2023/10/29 09:14:50;;;;;;;2.70;0.98;;;;;;;14.25;100.00;99354.09;5066241;28;20063;-66
2023/10/29 09:17:16;;;;;;;8.13;1.40;;;;;;;14.27;100.00;99359.22;5069504;28;20059;-66
2023/10/29 09:19:41;;;;;;;5.80;0.82;;;;;;;14.34;100.00;99363.28;5069123;28;20036;-69
2023/10/29 09:22:07;;;;;;;3.88;1.00;;;;;;;14.31;100.00;99363.00;5069318;28;20029;-69
2023/10/29 09:24:32;;;;;;;6.70;1.48;;;;;;;14.14;100.00;99363.94;5069081;28;20032;-69
2023/10/29 09:26:57;;;;;;;6.10;1.45;;;;;;;13.97;100.00;99371.34;5068880;28;20079;-69
2023/10/29 09:29:23;;;;;;;3.35;0.82;;;;;;;13.87;100.00;99376.59;5069241;28;20024;-69
2023/10/29 09:31:51;;;;;;;5.22;0.90;;;;;;;13.84;100.00;99369.88;5069090;28;20718;-69
2023/10/29 09:34:16;;;;;;;6.18;1.55;;;;;;;13.90;100.00;99360.00;5069259;28;20102;-68
2023/10/29 09:36:43;;;;;;;9.80;2.22;;;;;;;14.02;100.00;99361.47;5069153;28;20028;-67
2023/10/29 09:39:09;;;;;;;4.65;0.80;;;;;;;14.13;100.00;99366.91;5069143;28;20484;-69
2023/10/29 09:41:37;;;;;;;5.82;1.10;;;;;;;14.17;100.00;99373.34;5068897;28;20050;-70
2023/10/29 09:44:05;;;;;;;3.53;0.80;;;;;;;14.24;100.00;99366.72;5068966;28;20034;-69
2023/10/29 09:46:35;;;;;;;6.93;0.93;;;;;;;14.34;100.00;99357.13;5068348;28;20024;-69
2023/10/29 09:49:01;;;;;;;5.03;1.02;;;;;;;14.34;100.00;99381.28;5068657;28;20537;-69
2023/10/29 09:51:28;;;;;;;7.32;1.38;;;;;;;14.20;100.00;99379.03;5068695;28;20036;-69
2023/10/29 09:53:57;;;;;;;1.98;1.20;;;;;;;14.19;100.00;99376.59;5068707;28;20040;-69
2023/10/29 09:56:24;;;;;;;5.00;1.42;;;;;;;14.17;100.00;99371.50;5067956;28;20039;-70
2023/10/29 09:58:49;;;;;;;4.68;1.30;;;;;;;14.21;100.00;99366.41;5069260;28;20051;-69
2023/10/29 10:01:15;;;;;;;3.50;1.13;;;;;;;14.21;100.00;99377.16;5068124;28;20476;-69
2023/10/29 10:03:40;;;;;;;5.22;0.77;;;;;;;14.16;100.00;99374.44;5068350;28;20043;-69
2023/10/29 10:06:06;;;;;;;7.22;0.95;;;;;;;14.16;100.00;99356.47;5068051;28;20036;-70
2023/10/29 10:08:33;;;;;;;0.88;0.60;;;;;;;14.13;100.00;99350.81;5068244;28;20765;-69
2023/10/29 10:10:59;;;;;;;4.38;0.98;;;;;;;14.10;100.00;99343.28;5050352;28;20032;-69
2023/10/29 10:13:35;;;;;;;3.85;1.73;;;;;;;14.07;100.00;99344.63;5068122;28;20032;-69
2023/10/29 10:16:07;;;;;;;4.22;1.80;;;;;;;14.06;100.00;99350.22;5066703;28;20020;-69
2023/10/29 10:18:52;;;;;;;5.50;1.13;;;;;;;14.01;100.00;99342.94;5068249;28;20780;-69
2023/10/29 10:21:20;;;;;;;11.18;1.42;;;;;;;13.99;100.00;99350.41;5067589;28;20105;-69
2023/10/29 10:23:50;;;;;;;8.65;1.25;;;;;;;13.94;100.00;99337.00;5068014;28;20039;-69
2023/10/29 10:26:26;;;;;;;4.25;1.85;;;;;;;13.89;100.00;99345.00;5048832;28;20506;-69
2023/10/29 10:28:59;;;;;;;12.68;1.45;;;;;;;13.88;100.00;99335.31;5067855;28;20391;-69
2023/10/29 10:31:28;;;;;;;6.70;1.30;;;;;;;13.87;100.00;99331.84;5067752;28;20098;-70
2023/10/29 10:34:14;;;;;;;9.55;1.25;;;;;;;13.91;100.00;99332.13;5067732;28;20029;-70
2023/10/29 10:36:41;;;;;;;7.88;1.45;;;;;;;13.86;100.00;99327.56;5067491;28;20036;-69
2023/10/29 10:39:07;;;;;;;8.60;1.20;;;;;;;13.86;100.00;99335.59;5067672;28;20555;-69
2023/10/29 10:41:44;;;;;;;22.02;2.28;;;;;;;13.90;100.00;99330.53;5067567;28;20032;-67
2023/10/29 10:44:14;;;;;;;5.65;1.65;;;;;;;14.02;100.00;99345.38;5067444;28;20029;-67
2023/10/29 10:46:51;;;;;;;6.68;2.28;;;;;;;14.08;100.00;99342.72;5067029;28;20063;-67
2023/10/29 10:49:18;;;;;;;5.50;1.17;;;;;;;14.15;100.00;99360.22;5066987;28;20039;-70
2023/10/29 10:51:45;;;;;;;12.50;2.03;;;;;;;14.19;100.00;99366.66;5066897;28;20038;-70
2023/10/29 10:54:11;;;;;;;6.90;1.30;;;;;;;14.19;100.00;99373.91;5067061;28;20039;-68
2023/10/29 10:56:37;;;;;;;4.38;1.05;;;;;;;14.17;100.00;99374.19;5066359;28;20388;-69
2023/10/29 10:59:09;;;;;;;8.60;2.65;;;;;;;14.13;100.00;99373.06;5066686;28;20025;-70
2023/10/29 11:01:35;;;;;;;7.43;2.08;;;;;;;14.12;100.00;99371.47;5065594;28;20040;-69
2023/10/29 11:04:03;;;;;;;4.45;1.73;;;;;;;14.06;100.00;99369.78;5066693;28;20032;-68
2023/10/29 11:06:34;;;;;;;4.53;0.93;;;;;;;13.94;100.00;99378.00;5066125;28;20036;-68
2023/10/29 11:08:59;;;;;;;4.70;1.38;;;;;;;13.87;100.00;99373.94;5066646;28;20031;-69
2023/10/29 11:11:33;;;;;;;7.40;1.80;;;;;;;13.81;100.00;99376.56;5066058;28;20044;-68
2023/10/29 11:14:12;;;;;;;7.60;1.92;;;;;;;13.76;100.00;99371.16;5066317;28;20333;-68
2023/10/29 11:16:55;;;;;;;7.30;2.05;;;;;;;13.73;100.00;99365.50;5066619;28;20035;-70
2023/10/29 11:19:43;;;;;;;6.88;1.13;;;;;;;13.69;100.00;99380.44;5065684;28;20024;-70